createdAt,value
2019-06-26T00:01:53.833Z,85.05
2019-06-26T00:04:21.703Z,86.02
2019-06-26T00:06:49.640Z,85.48
2019-06-26T00:09:17.865Z,86.12
2019-06-26T00:11:46.211Z,85.79
2019-06-26T00:14:14.496Z,85.81
2019-06-26T00:16:42.455Z,85.88
2019-06-26T00:19:10.328Z,85.16
2019-06-26T00:21:38.384Z,85.46
2019-06-26T00:24:06.798Z,86.12
2019-06-26T00:26:34.738Z,83.97
2019-06-26T00:29:03.265Z,83.97
2019-06-26T00:31:31.380Z,84.88
2019-06-26T00:33:59.471Z,85.42
2019-06-26T00:36:27.549Z,87.13
2019-06-26T00:38:56.017Z,86.91
2019-06-26T00:41:24.184Z,86.41
2019-06-26T00:43:52.285Z,85.81
2019-06-26T00:46:20.358Z,85.62
2019-06-26T00:48:48.800Z,86.09
2019-06-26T00:51:16.910Z,87.65
2019-06-26T00:53:44.951Z,87.21
2019-06-26T00:56:13.040Z,87.11
2019-06-26T00:58:41.431Z,87.10
2019-06-26T01:01:09.558Z,87.40
2019-06-26T01:03:37.694Z,87.51
2019-06-26T01:06:08.030Z,87.00
2019-06-26T01:08:36.157Z,87.06
2019-06-26T01:11:04.245Z,86.53
2019-06-26T01:13:32.913Z,87.04
2019-06-26T01:16:00.969Z,87.46
2019-06-26T01:18:29.284Z,87.00
2019-06-26T01:20:57.520Z,86.28
2019-06-26T01:23:25.495Z,85.83
2019-06-26T01:25:54.199Z,85.71
2019-06-26T01:28:22.037Z,85.43
2019-06-26T01:30:50.511Z,87.14
2019-06-26T01:33:18.843Z,87.15
2019-06-26T01:35:47.102Z,86.99
2019-06-26T01:38:15.239Z,86.99
2019-06-26T01:40:43.432Z,86.86
2019-06-26T01:43:11.304Z,86.12
2019-06-26T01:45:39.260Z,87.10
2019-06-26T01:48:07.557Z,87.73
2019-06-26T01:50:35.587Z,87.06
2019-06-26T01:53:03.584Z,86.73
2019-06-26T01:55:31.582Z,84.78
2019-06-26T01:58:00.722Z,84.75
2019-06-26T02:00:29.541Z,84.25
2019-06-26T02:02:57.579Z,85.31
2019-06-26T02:05:25.715Z,84.66
2019-06-26T02:07:54.233Z,85.35
2019-06-26T02:10:22.865Z,84.97
2019-06-26T02:12:51.380Z,84.00
2019-06-26T02:15:21.437Z,83.92
2019-06-26T02:17:49.828Z,83.90
2019-06-26T02:20:18.381Z,83.86
2019-06-26T02:22:49.447Z,83.87
2019-06-26T02:25:16.579Z,84.98
2019-06-26T02:27:44.671Z,84.45
2019-06-26T02:30:12.742Z,85.05
2019-06-26T02:32:40.852Z,85.53
2019-06-26T02:35:10.425Z,85.48
2019-06-26T02:37:39.316Z,85.05
2019-06-26T02:40:07.954Z,85.31
2019-06-26T02:42:36.090Z,85.12
2019-06-26T02:45:04.988Z,84.97
2019-06-26T02:47:33.164Z,84.79
2019-06-26T02:50:01.148Z,85.08
2019-06-26T02:52:29.171Z,85.64
2019-06-26T02:54:57.363Z,85.91
2019-06-26T02:57:25.607Z,85.92
2019-06-26T02:59:53.714Z,85.36
2019-06-26T03:02:22.049Z,85.60
2019-06-26T03:04:50.556Z,84.81
2019-06-26T03:07:18.398Z,84.85
2019-06-26T03:09:46.516Z,84.57
2019-06-26T03:12:15.021Z,84.55
2019-06-26T03:14:43.485Z,84.92
2019-06-26T03:17:11.651Z,84.74
2019-06-26T03:19:39.665Z,84.82
2019-06-26T03:22:08.301Z,85.46
2019-06-26T03:24:36.212Z,84.30
2019-06-26T03:27:04.226Z,83.74
2019-06-26T03:29:32.286Z,83.27
2019-06-26T03:32:00.374Z,83.93
2019-06-26T03:34:28.525Z,83.39
2019-06-26T03:36:56.957Z,83.88
2019-06-26T03:39:25.169Z,83.89
2019-06-26T03:41:53.882Z,83.85
2019-06-26T03:44:21.916Z,83.60
2019-06-26T03:46:49.996Z,82.99
2019-06-26T03:49:17.938Z,82.62
2019-06-26T03:51:46.462Z,81.38
2019-06-26T03:54:14.573Z,81.20
2019-06-26T03:56:42.573Z,80.79
2019-06-26T03:59:10.487Z,80.02
2019-06-26T04:01:38.582Z,78.29
2019-06-26T04:04:06.826Z,75.18
2019-06-26T04:06:34.877Z,73.30
2019-06-26T04:09:04.379Z,71.95
2019-06-26T04:11:33.519Z,71.07
2019-06-26T04:14:01.987Z,68.47
2019-06-26T04:16:30.055Z,65.53
2019-06-26T04:18:58.080Z,64.16
2019-06-26T04:21:26.003Z,64.77
2019-06-26T04:23:53.820Z,62.42
2019-06-26T04:26:25.369Z,59.30
2019-06-26T04:28:54.701Z,58.47
2019-06-26T04:31:22.530Z,57.48
2019-06-26T04:33:50.652Z,56.84
2019-06-26T04:36:19.378Z,55.31
2019-06-26T04:38:55.779Z,51.48
2019-06-26T04:41:24.234Z,50.95
2019-06-26T04:43:52.563Z,49.81
2019-06-26T04:46:20.905Z,48.15
2019-06-26T04:48:49.104Z,51.06
2019-06-26T04:51:16.925Z,51.72
2019-06-26T04:53:45.208Z,50.17
2019-06-26T04:56:34.218Z,50.23
2019-06-26T04:59:02.140Z,49.45
2019-06-26T05:01:30.969Z,51.13
2019-06-26T05:03:58.991Z,48.45
2019-06-26T05:06:27.326Z,47.77
2019-06-26T05:08:56.155Z,46.40
2019-06-26T05:11:24.121Z,45.86
2019-06-26T05:13:52.044Z,44.48
2019-06-26T05:16:20.702Z,43.45
2019-06-26T05:18:50.119Z,43.59
2019-06-26T05:21:24.554Z,47.34
2019-06-26T05:23:53.205Z,47.80
2019-06-26T05:26:21.061Z,46.36
2019-06-26T05:28:49.260Z,45.07
2019-06-26T05:31:17.864Z,46.66
2019-06-26T05:33:45.883Z,44.76
2019-06-26T05:36:14.005Z,47.89
2019-06-26T05:38:43.868Z,46.03
2019-06-26T05:41:13.172Z,46.46
2019-06-26T05:43:41.908Z,46.82
2019-06-26T05:46:09.767Z,45.31
2019-06-26T05:48:38.711Z,45.35
2019-06-26T05:51:06.615Z,47.36
2019-06-26T05:53:34.787Z,45.86
2019-06-26T05:56:02.934Z,47.39
2019-06-26T05:58:31.336Z,46.43
2019-06-26T06:00:59.386Z,46.16
2019-06-26T06:03:27.684Z,47.77
2019-06-26T06:05:56.624Z,47.49
2019-06-26T06:08:24.703Z,47.25
2019-06-26T06:10:53.205Z,45.74
2019-06-26T06:13:21.728Z,45.96
2019-06-26T06:15:49.861Z,47.94
2019-06-26T06:18:17.946Z,48.19
2019-06-26T06:20:45.991Z,52.47
2019-06-26T06:23:14.092Z,55.42
2019-06-26T06:25:42.038Z,54.84
2019-06-26T06:28:10.156Z,55.55
2019-06-26T06:30:38.483Z,56.21
2019-06-26T06:33:06.573Z,57.01
2019-06-26T06:35:34.664Z,58.27
2019-06-26T06:38:04.399Z,56.92
2019-06-26T06:40:32.789Z,56.54
2019-06-26T06:43:00.896Z,56.38
2019-06-26T06:45:29.704Z,57.48
2019-06-26T06:47:57.750Z,56.25
2019-06-26T06:50:25.840Z,54.52
2019-06-26T06:52:54.341Z,54.87
2019-06-26T06:55:23.421Z,55.06
2019-06-26T06:57:53.511Z,53.97
2019-06-26T07:00:23.043Z,53.02
2019-06-26T07:02:51.081Z,51.70
2019-06-26T07:05:20.835Z,50.70
2019-06-26T07:07:49.320Z,50.72
2019-06-26T07:10:17.594Z,51.59
2019-06-26T07:12:45.603Z,52.22
2019-06-26T07:15:15.670Z,51.85
2019-06-26T07:17:44.879Z,51.69
2019-06-26T07:20:13.965Z,50.76
2019-06-26T07:22:41.819Z,48.93
2019-06-26T07:25:09.505Z,50.36
2019-06-26T07:27:37.957Z,49.52
2019-06-26T07:30:06.403Z,49.63
2019-06-26T07:32:34.535Z,48.16
2019-06-26T07:35:02.987Z,49.28
2019-06-26T07:37:30.845Z,49.19
2019-06-26T07:40:02.061Z,50.20
2019-06-26T07:42:28.462Z,48.53
2019-06-26T07:44:56.549Z,49.18
2019-06-26T07:47:41.567Z,48.87
2019-06-26T07:49:55.023Z,48.00
2019-06-26T07:52:23.166Z,46.35
2019-06-26T07:54:51.661Z,46.70
2019-06-26T07:57:19.618Z,46.04
2019-06-26T07:59:47.907Z,45.57
2019-06-26T08:02:15.895Z,45.75
2019-06-26T08:04:45.176Z,45.83
2019-06-26T08:07:13.162Z,44.88
2019-06-26T08:09:42.217Z,44.92
2019-06-26T08:12:10.598Z,45.44
2019-06-26T08:14:38.711Z,46.62
2019-06-26T08:17:06.737Z,48.19
2019-06-26T08:19:34.649Z,45.98
2019-06-26T08:22:02.693Z,46.52
2019-06-26T08:24:31.590Z,45.31
2019-06-26T08:27:00.112Z,44.76
2019-06-26T08:29:29.080Z,42.97
2019-06-26T08:31:58.671Z,43.03
2019-06-26T08:34:26.773Z,44.69
2019-06-26T08:36:54.840Z,45.52
2019-06-26T08:39:23.161Z,43.83
2019-06-26T08:41:51.480Z,42.73
2019-06-26T08:44:20.036Z,44.21
2019-06-26T08:46:48.124Z,43.03
2019-06-26T08:49:25.559Z,43.05
2019-06-26T08:51:45.804Z,41.64
2019-06-26T08:54:13.964Z,43.93
2019-06-26T08:56:42.185Z,42.82
2019-06-26T08:59:10.012Z,43.53
2019-06-26T09:01:38.780Z,41.36
2019-06-26T09:04:07.720Z,42.03
2019-06-26T09:06:36.143Z,42.87
2019-06-26T09:09:06.764Z,41.24
2019-06-26T09:11:35.809Z,41.27
2019-06-26T09:14:04.981Z,41.03
2019-06-26T09:16:33.045Z,40.44
2019-06-26T09:19:01.053Z,39.40
2019-06-26T09:21:31.232Z,38.82
2019-06-26T09:23:59.843Z,38.98
2019-06-26T09:26:27.890Z,37.58
2019-06-26T09:28:56.816Z,36.69
2019-06-26T09:31:24.908Z,36.34
2019-06-26T09:33:53.546Z,37.76
2019-06-26T09:36:21.667Z,39.71
2019-06-26T09:38:50.039Z,38.21
2019-06-26T09:41:18.459Z,35.64
2019-06-26T09:43:46.588Z,35.75
2019-06-26T09:46:15.010Z,36.90
2019-06-26T09:48:52.829Z,35.27
2019-06-26T09:51:14.366Z,34.74
2019-06-26T09:53:47.282Z,34.45
2019-06-26T09:56:12.108Z,33.88
2019-06-26T09:58:40.612Z,34.24
2019-06-26T10:01:08.990Z,33.19
2019-06-26T10:03:37.195Z,31.80
2019-06-26T10:06:05.629Z,31.60
2019-06-26T10:08:33.738Z,31.49
2019-06-26T10:11:02.203Z,31.88
2019-06-26T10:13:31.714Z,32.06
2019-06-26T10:16:00.764Z,31.38
2019-06-26T10:18:28.997Z,33.13
2019-06-26T10:20:57.433Z,33.16
2019-06-26T10:23:25.719Z,32.95
2019-06-26T10:25:54.592Z,31.93
2019-06-26T10:28:22.680Z,32.20
2019-06-26T10:30:50.588Z,32.07
2019-06-26T10:33:18.505Z,32.24
2019-06-26T10:35:46.905Z,33.20
2019-06-26T10:38:14.856Z,33.80
2019-06-26T10:40:42.816Z,34.44
2019-06-26T10:43:11.016Z,34.15
2019-06-26T10:45:39.074Z,34.35
2019-06-26T10:48:07.788Z,33.83
2019-06-26T10:50:48.243Z,33.97
2019-06-26T10:53:06.035Z,34.23
2019-06-26T10:55:34.152Z,33.59
2019-06-26T10:58:01.987Z,33.85
2019-06-26T11:00:30.818Z,33.26
2019-06-26T11:02:59.244Z,33.46
2019-06-26T11:05:28.101Z,33.64
2019-06-26T11:07:56.633Z,34.52
2019-06-26T11:10:24.711Z,33.72
2019-06-26T11:12:52.752Z,35.06
2019-06-26T11:15:22.487Z,32.42
2019-06-26T11:17:50.442Z,36.08
2019-06-26T11:20:19.862Z,35.08
2019-06-26T11:22:47.828Z,35.29
2019-06-26T11:25:28.997Z,33.87
2019-06-26T11:27:57.121Z,33.33
2019-06-26T11:30:25.768Z,33.62
2019-06-26T11:32:54.028Z,33.29
2019-06-26T11:35:23.053Z,34.56
2019-06-26T11:37:51.089Z,32.49
2019-06-26T11:40:19.564Z,31.57
2019-06-26T11:42:47.994Z,32.63
2019-06-26T11:45:16.438Z,33.90
2019-06-26T11:47:45.956Z,32.13
2019-06-26T11:50:13.693Z,32.15
2019-06-26T11:52:42.480Z,33.47
2019-06-26T11:55:11.974Z,32.47
2019-06-26T11:57:40.095Z,31.18
2019-06-26T12:00:09.564Z,32.42
2019-06-26T12:02:38.269Z,36.33
2019-06-26T12:05:06.472Z,32.08
2019-06-26T12:07:35.413Z,33.63
2019-06-26T12:10:22.543Z,33.73
2019-06-26T12:13:16.115Z,34.62
2019-06-26T12:15:51.502Z,33.03
2019-06-26T12:18:46.724Z,33.85
2019-06-26T12:21:34.151Z,33.69
2019-06-26T12:24:19.824Z,33.27
2019-06-26T12:26:50.315Z,34.15
2019-06-26T12:29:22.016Z,33.47
2019-06-26T12:31:50.010Z,33.58
2019-06-26T12:34:18.095Z,33.12
2019-06-26T12:36:46.188Z,33.18
2019-06-26T12:39:14.586Z,33.41
2019-06-26T12:41:42.838Z,34.24
2019-06-26T12:44:10.879Z,34.37
2019-06-26T12:46:39.653Z,32.81
2019-06-26T12:49:07.734Z,32.37
2019-06-26T12:51:35.849Z,32.61
2019-06-26T12:54:03.988Z,33.02
2019-06-26T12:56:32.227Z,30.88
2019-06-26T12:59:00.316Z,31.64
2019-06-26T13:01:28.838Z,30.10
2019-06-26T13:03:57.310Z,31.20
2019-06-26T13:06:25.259Z,32.06
2019-06-26T13:08:53.276Z,30.24
2019-06-26T13:11:21.521Z,32.16
2019-06-26T13:14:03.891Z,30.40
2019-06-26T13:16:46.708Z,29.73
2019-06-26T13:19:17.695Z,30.30
2019-06-26T13:21:45.677Z,30.42
2019-06-26T13:24:13.956Z,31.18
2019-06-26T13:26:42.202Z,30.22
2019-06-26T13:29:10.522Z,30.72
2019-06-26T13:31:39.572Z,29.84
2019-06-26T13:34:07.862Z,29.54
2019-06-26T13:36:36.312Z,28.97
2019-06-26T13:39:05.439Z,30.64
2019-06-26T13:41:33.504Z,30.38
2019-06-26T13:44:01.343Z,29.12
2019-06-26T13:46:30.848Z,30.13
2019-06-26T13:48:59.489Z,28.34
2019-06-26T13:51:27.975Z,29.88
2019-06-26T13:53:56.313Z,30.02
2019-06-26T13:56:24.414Z,29.23
2019-06-26T13:58:53.489Z,30.12
2019-06-26T14:01:23.190Z,30.41
2019-06-26T14:03:51.035Z,29.68
2019-06-26T14:06:19.865Z,29.59
2019-06-26T14:08:48.147Z,29.58
2019-06-26T14:11:16.781Z,30.52
2019-06-26T14:13:45.913Z,29.70
2019-06-26T14:16:14.083Z,30.73
2019-06-26T14:18:43.021Z,28.73
2019-06-26T14:21:24.982Z,28.68
2019-06-26T14:23:44.897Z,29.61
2019-06-26T14:26:12.882Z,28.69
2019-06-26T14:28:41.762Z,28.33
2019-06-26T14:31:10.340Z,28.41
2019-06-26T14:33:40.677Z,29.52
2019-06-26T14:36:08.813Z,25.82
2019-06-26T14:38:37.241Z,26.56
2019-06-26T14:41:05.446Z,26.90
2019-06-26T14:43:33.683Z,27.25
2019-06-26T14:46:02.301Z,27.60
2019-06-26T14:48:30.379Z,26.73
2019-06-26T14:50:58.465Z,26.51
2019-06-26T14:53:27.429Z,26.60
2019-06-26T14:55:56.860Z,26.17
2019-06-26T14:58:26.465Z,26.36
2019-06-26T15:00:54.008Z,28.03
2019-06-26T15:03:23.025Z,26.99
2019-06-26T15:05:51.475Z,26.75
2019-06-26T15:08:20.287Z,27.29
2019-06-26T15:10:48.833Z,27.98
2019-06-26T15:13:17.639Z,28.30
2019-06-26T15:15:47.358Z,28.14
2019-06-26T15:18:14.740Z,28.99
2019-06-26T15:20:43.432Z,27.83
2019-06-26T15:23:13.070Z,27.75
2019-06-26T15:25:41.286Z,28.35
2019-06-26T15:28:12.000Z,28.95
2019-06-26T15:30:40.495Z,27.23
2019-06-26T15:33:08.543Z,27.02
2019-06-26T15:35:36.622Z,28.15
2019-06-26T15:38:04.990Z,28.70
2019-06-26T15:40:33.907Z,28.71
2019-06-26T15:43:01.838Z,29.93
2019-06-26T15:45:30.544Z,30.62
2019-06-26T15:47:59.054Z,29.67
2019-06-26T15:50:27.489Z,29.06
2019-06-26T15:52:55.579Z,28.99
2019-06-26T15:55:23.621Z,30.63
2019-06-26T15:57:51.976Z,31.22
2019-06-26T16:00:20.293Z,30.64
2019-06-26T16:02:49.091Z,30.30
2019-06-26T16:05:17.388Z,27.92
2019-06-26T16:07:45.671Z,29.97
2019-06-26T16:10:13.998Z,30.62
2019-06-26T16:12:42.073Z,29.29
2019-06-26T16:15:12.039Z,29.96
2019-06-26T16:17:50.117Z,31.48
2019-06-26T16:20:18.698Z,30.34
2019-06-26T16:22:46.962Z,30.01
2019-06-26T16:25:15.375Z,30.05
2019-06-26T16:27:43.809Z,30.06
2019-06-26T16:30:12.308Z,29.37
2019-06-26T16:32:41.374Z,29.13
2019-06-26T16:35:12.216Z,28.14
2019-06-26T16:37:39.744Z,27.97
2019-06-26T16:40:07.947Z,27.09
2019-06-26T16:42:36.367Z,27.86
2019-06-26T16:45:05.106Z,27.62
2019-06-26T16:47:33.839Z,27.85
2019-06-26T16:50:01.757Z,27.89
2019-06-26T16:52:47.472Z,27.89
2019-06-26T16:55:01.954Z,27.73
2019-06-26T16:57:31.494Z,27.72
2019-06-26T17:00:09.313Z,26.51
2019-06-26T17:02:29.710Z,25.61
2019-06-26T17:04:58.166Z,25.84
2019-06-26T17:07:28.011Z,26.58
2019-06-26T17:09:56.197Z,26.49
2019-06-26T17:12:24.147Z,26.61
2019-06-26T17:14:52.667Z,26.03
2019-06-26T17:17:20.625Z,25.82
2019-06-26T17:19:49.664Z,25.63
2019-06-26T17:22:18.089Z,26.61
2019-06-26T17:24:46.743Z,26.60
2019-06-26T17:27:14.590Z,27.00
2019-06-26T17:29:43.296Z,27.10
2019-06-26T17:32:11.817Z,28.08
2019-06-26T17:34:40.303Z,28.42
2019-06-26T17:37:08.380Z,28.87
2019-06-26T17:39:37.926Z,29.10
2019-06-26T17:42:06.115Z,29.72
2019-06-26T17:44:34.231Z,29.40
2019-06-26T17:47:05.267Z,29.26
2019-06-26T17:49:32.197Z,29.30
2019-06-26T17:52:00.903Z,29.89
2019-06-26T17:54:29.755Z,29.95
2019-06-26T17:56:58.376Z,30.55
2019-06-26T17:59:27.957Z,30.91
2019-06-26T18:01:56.562Z,31.13
2019-06-26T18:04:25.030Z,31.27
2019-06-26T18:06:53.932Z,32.27
2019-06-26T18:09:23.766Z,31.69
2019-06-26T18:11:55.692Z,31.99
2019-06-26T18:14:23.808Z,33.31
2019-06-26T18:16:52.019Z,34.21
2019-06-26T18:19:20.527Z,35.65
2019-06-26T18:21:48.497Z,39.99
2019-06-26T18:24:16.590Z,41.98
2019-06-26T18:26:44.605Z,43.50
2019-06-26T18:29:12.789Z,43.54
2019-06-26T18:31:40.836Z,44.40
2019-06-26T18:34:08.930Z,44.11
2019-06-26T18:36:37.047Z,46.73
2019-06-26T18:39:07.175Z,49.46
2019-06-26T18:41:35.721Z,54.71
2019-06-26T18:44:05.337Z,56.33
2019-06-26T18:46:33.450Z,58.89
2019-06-26T18:49:02.208Z,57.18
2019-06-26T18:51:30.755Z,58.64
2019-06-26T18:54:01.102Z,59.04
2019-06-26T18:56:29.161Z,60.02
2019-06-26T18:58:57.562Z,59.48
2019-06-26T19:01:26.337Z,59.84
2019-06-26T19:03:54.994Z,61.39
2019-06-26T19:06:23.229Z,61.08
2019-06-26T19:08:51.844Z,56.73
2019-06-26T19:11:20.613Z,55.24
2019-06-26T19:13:49.110Z,60.09
2019-06-26T19:16:18.452Z,59.02
2019-06-26T19:18:46.890Z,65.71
2019-06-26T19:21:16.186Z,65.71
2019-06-26T19:23:44.569Z,65.13
2019-06-26T19:26:12.993Z,65.15
2019-06-26T19:28:41.239Z,67.17
2019-06-26T19:31:09.428Z,66.56
2019-06-26T19:33:39.056Z,66.85
2019-06-26T19:36:07.448Z,67.09
2019-06-26T19:38:36.482Z,67.53
2019-06-26T19:41:08.391Z,68.11
2019-06-26T19:43:35.508Z,69.19
2019-06-26T19:46:05.085Z,69.44
2019-06-26T19:48:33.536Z,69.70
2019-06-26T19:51:01.556Z,70.14
2019-06-26T19:53:30.480Z,71.20
2019-06-26T19:55:59.373Z,70.31
2019-06-26T19:58:27.585Z,71.46
2019-06-26T20:00:55.917Z,72.72
2019-06-26T20:03:23.750Z,74.58
2019-06-26T20:05:52.559Z,75.79
2019-06-26T20:08:20.908Z,76.32
2019-06-26T20:10:49.031Z,75.83
2019-06-26T20:13:16.964Z,75.51
2019-06-26T20:15:45.561Z,75.21
2019-06-26T20:18:14.177Z,74.90
2019-06-26T20:20:42.692Z,74.83
2019-06-26T20:23:10.559Z,75.91
2019-06-26T20:25:38.642Z,75.53
2019-06-26T20:28:06.747Z,75.56
2019-06-26T20:30:35.187Z,75.48
2019-06-26T20:33:03.527Z,75.91
2019-06-26T20:35:40.669Z,76.09
2019-06-26T20:38:08.803Z,76.20
2019-06-26T20:40:37.174Z,76.50
2019-06-26T20:43:05.382Z,76.41
2019-06-26T20:45:33.486Z,76.51
2019-06-26T20:48:02.424Z,76.44
2019-06-26T20:50:30.624Z,76.68
2019-06-26T20:52:59.157Z,75.51
2019-06-26T20:55:27.471Z,76.45
2019-06-26T20:57:56.237Z,76.91
2019-06-26T21:00:24.838Z,76.47
2019-06-26T21:02:54.297Z,77.15
2019-06-26T21:05:22.720Z,78.19
2019-06-26T21:07:51.232Z,77.78
2019-06-26T21:10:19.649Z,77.53
2019-06-26T21:12:48.121Z,77.01
2019-06-26T21:15:16.156Z,78.69
2019-06-26T21:17:44.507Z,79.94
2019-06-26T21:20:13.048Z,80.28
2019-06-26T21:22:43.408Z,80.88
2019-06-26T21:28:18.788Z,81.19
2019-06-26T21:30:46.785Z,79.29
2019-06-26T21:33:15.242Z,78.37
2019-06-26T21:35:44.165Z,78.09
2019-06-26T21:38:12.209Z,77.52
2019-06-26T21:40:40.916Z,76.35
2019-06-26T21:43:09.261Z,76.15
2019-06-26T21:45:37.540Z,76.67
2019-06-26T21:48:05.655Z,76.79
2019-06-26T21:50:34.594Z,75.93
2019-06-26T21:53:03.130Z,75.99
2019-06-26T21:55:34.671Z,76.21
2019-06-26T21:58:21.055Z,75.57
2019-06-26T22:01:07.632Z,74.98
2019-06-26T22:03:53.975Z,73.94
2019-06-26T22:06:24.719Z,73.92
2019-06-26T22:09:10.163Z,74.03
2019-06-26T22:11:40.363Z,74.73
2019-06-26T22:14:09.108Z,75.65
2019-06-26T22:16:37.121Z,75.57
2019-06-26T22:19:05.269Z,75.88
2019-06-26T22:21:34.800Z,77.18
2019-06-26T22:24:02.702Z,77.80
2019-06-26T22:26:30.537Z,78.91
2019-06-26T22:28:58.638Z,79.82
2019-06-26T22:31:26.499Z,79.93
2019-06-26T22:33:55.622Z,79.95
2019-06-26T22:36:23.540Z,80.00
2019-06-26T22:38:51.653Z,79.88
2019-06-26T22:41:19.829Z,79.84
2019-06-26T22:43:48.601Z,79.94
2019-06-26T22:46:18.555Z,80.15
2019-06-26T22:48:46.917Z,79.86
2019-06-26T22:51:15.093Z,79.64
2019-06-26T22:53:43.049Z,79.84
2019-06-26T22:56:11.082Z,78.54
2019-06-26T22:58:39.163Z,78.70
2019-06-26T23:01:07.299Z,78.92
2019-06-26T23:03:35.514Z,79.15
2019-06-26T23:06:04.897Z,80.36
2019-06-26T23:08:32.871Z,80.63
2019-06-26T23:11:01.269Z,80.47
2019-06-26T23:13:29.754Z,80.63
2019-06-26T23:15:58.658Z,80.83
2019-06-26T23:18:26.788Z,80.83
2019-06-26T23:20:56.230Z,80.72
2019-06-26T23:23:25.036Z,80.46
2019-06-26T23:25:54.099Z,80.45
2019-06-26T23:28:22.379Z,81.33
2019-06-26T23:30:50.315Z,79.64
2019-06-26T23:33:18.221Z,79.58
2019-06-26T23:35:46.280Z,81.03
2019-06-26T23:38:16.012Z,81.62
2019-06-26T23:40:43.946Z,81.66
2019-06-26T23:43:12.018Z,81.84
2019-06-26T23:45:40.230Z,81.66
2019-06-26T23:48:08.609Z,81.73
2019-06-26T23:50:36.580Z,80.84
2019-06-26T23:53:05.036Z,81.32
2019-06-26T23:55:33.114Z,81.63
2019-06-26T23:58:01.101Z,81.13
